sensor_id;sensor_type;location;lat;lon;timestamp;pressure;altitude;pressure_sealevel;temperature;humidity
52105;BME280;38103;42.776;23.112;2023-04-01T00:00:26;93123.50;;;10.57;56.36
52105;BME280;38103;42.776;23.112;2023-04-01T00:02:52;93119.81;;;10.58;56.73
52105;BME280;38103;42.776;23.112;2023-04-01T00:05:17;93114.25;;;10.55;56.63
52105;BME280;38103;42.776;23.112;2023-04-01T00:07:43;93102.56;;;10.50;56.55
52105;BME280;38103;42.776;23.112;2023-04-01T00:10:11;93114.50;;;10.53;56.01
52105;BME280;38103;42.776;23.112;2023-04-01T00:12:37;93116.63;;;10.51;56.44
52105;BME280;38103;42.776;23.112;2023-04-01T00:15:04;93111.91;;;10.58;56.47
52105;BME280;38103;42.776;23.112;2023-04-01T00:17:30;93111.38;;;10.56;57.03
52105;BME280;38103;42.776;23.112;2023-04-01T00:19:56;93104.53;;;10.66;56.58
52105;BME280;38103;42.776;23.112;2023-04-01T00:22:22;93087.03;;;10.59;56.54
52105;BME280;38103;42.776;23.112;2023-04-01T00:24:47;93110.19;;;10.90;55.78
52105;BME280;38103;42.776;23.112;2023-04-01T00:27:13;93103.63;;;10.98;55.43
52105;BME280;38103;42.776;23.112;2023-04-01T00:29:42;93101.00;;;11.03;55.21
52105;BME280;38103;42.776;23.112;2023-04-01T00:32:07;93085.69;;;11.11;55.11
52105;BME280;38103;42.776;23.112;2023-04-01T00:34:33;93089.41;;;11.10;58.79
52105;BME280;38103;42.776;23.112;2023-04-01T00:36:58;93079.25;;;10.91;56.64
52105;BME280;38103;42.776;23.112;2023-04-01T00:39:23;93082.97;;;10.84;56.23
52105;BME280;38103;42.776;23.112;2023-04-01T00:41:49;93073.91;;;10.75;55.28
52105;BME280;38103;42.776;23.112;2023-04-01T00:44:23;93070.78;;;10.83;55.07
52105;BME280;38103;42.776;23.112;2023-04-01T00:46:49;93028.94;;;10.70;54.77
52105;BME280;38103;42.776;23.112;2023-04-01T00:49:17;93044.91;;;10.96;56.80
52105;BME280;38103;42.776;23.112;2023-04-01T00:51:45;93068.72;;;10.96;56.83
52105;BME280;38103;42.776;23.112;2023-04-01T00:54:13;93059.69;;;10.87;58.82
52105;BME280;38103;42.776;23.112;2023-04-01T00:56:48;93033.41;;;10.59;59.40
52105;BME280;38103;42.776;23.112;2023-04-01T00:59:22;93056.91;;;10.55;59.24
52105;BME280;38103;42.776;23.112;2023-04-01T01:01:49;93046.78;;;10.47;60.73
52105;BME280;38103;42.776;23.112;2023-04-01T01:04:41;93043.59;;;10.45;61.53
52105;BME280;38103;42.776;23.112;2023-04-01T01:17:48;93012.88;;;10.28;62.26
52105;BME280;38103;42.776;23.112;2023-04-01T01:23:33;93005.66;;;10.18;61.05
52105;BME280;38103;42.776;23.112;2023-04-01T01:35:12;93023.66;;;10.21;60.24
52105;BME280;38103;42.776;23.112;2023-04-01T01:37:42;92980.63;;;9.82;60.39
52105;BME280;38103;42.776;23.112;2023-04-01T01:40:10;93014.13;;;10.15;60.18
52105;BME280;38103;42.776;23.112;2023-04-01T01:42:39;93023.16;;;10.24;58.79
52105;BME280;38103;42.776;23.112;2023-04-01T01:45:07;92984.53;;;10.18;57.75
52105;BME280;38103;42.776;23.112;2023-04-01T01:47:34;93000.72;;;10.27;58.60
52105;BME280;38103;42.776;23.112;2023-04-01T01:50:01;93001.16;;;10.13;58.89
52105;BME280;38103;42.776;23.112;2023-04-01T01:52:28;92993.16;;;10.03;59.58
52105;BME280;38103;42.776;23.112;2023-04-01T01:54:55;92998.34;;;9.87;60.72
52105;BME280;38103;42.776;23.112;2023-04-01T01:57:34;92954.69;;;9.74;58.31
52105;BME280;38103;42.776;23.112;2023-04-01T02:00:08;92984.81;;;10.16;58.44
52105;BME280;38103;42.776;23.112;2023-04-01T02:02:48;92982.25;;;10.32;56.71
52105;BME280;38103;42.776;23.112;2023-04-01T02:05:21;92986.50;;;10.38;57.39
52105;BME280;38103;42.776;23.112;2023-04-01T02:07:52;92988.03;;;10.29;56.32
52105;BME280;38103;42.776;23.112;2023-04-01T02:10:25;92987.56;;;10.43;55.67
52105;BME280;38103;42.776;23.112;2023-04-01T02:12:54;92989.22;;;10.54;55.09
52105;BME280;38103;42.776;23.112;2023-04-01T02:15:25;92963.34;;;10.51;55.63
52105;BME280;38103;42.776;23.112;2023-04-01T02:17:55;92991.41;;;10.73;55.54
52105;BME280;38103;42.776;23.112;2023-04-01T02:20:23;92988.28;;;10.81;54.19
52105;BME280;38103;42.776;23.112;2023-04-01T02:22:51;92994.84;;;10.68;54.00
52105;BME280;38103;42.776;23.112;2023-04-01T02:25:24;92953.81;;;10.55;54.71
52105;BME280;38103;42.776;23.112;2023-04-01T02:27:51;92997.31;;;10.96;54.72
52105;BME280;38103;42.776;23.112;2023-04-01T02:30:17;92988.31;;;10.92;54.60
52105;BME280;38103;42.776;23.112;2023-04-01T02:32:44;92996.75;;;10.89;54.57
52105;BME280;38103;42.776;23.112;2023-04-01T02:35:11;92997.25;;;10.80;55.04
52105;BME280;38103;42.776;23.112;2023-04-01T02:37:38;92994.03;;;10.68;55.50
52105;BME280;38103;42.776;23.112;2023-04-01T02:40:08;92998.25;;;10.58;56.06
52105;BME280;38103;42.776;23.112;2023-04-01T02:42:35;93005.09;;;10.54;56.07
52105;BME280;38103;42.776;23.112;2023-04-01T02:45:00;93004.00;;;10.50;56.44
52105;BME280;38103;42.776;23.112;2023-04-01T02:47:26;93005.09;;;10.54;56.30
52105;BME280;38103;42.776;23.112;2023-04-01T02:49:51;93005.00;;;10.44;56.40
52105;BME280;38103;42.776;23.112;2023-04-01T02:52:23;93021.97;;;10.48;56.51
52105;BME280;38103;42.776;23.112;2023-04-01T02:54:49;93024.91;;;10.57;56.70
52105;BME280;38103;42.776;23.112;2023-04-01T02:57:15;93012.97;;;10.49;57.93
52105;BME280;38103;42.776;23.112;2023-04-01T02:59:40;93030.78;;;10.59;58.81
52105;BME280;38103;42.776;23.112;2023-04-01T03:02:05;93042.66;;;10.61;60.79
52105;BME280;38103;42.776;23.112;2023-04-01T03:04:32;93027.75;;;10.45;62.81
52105;BME280;38103;42.776;23.112;2023-04-01T03:06:57;93042.81;;;10.44;64.79
52105;BME280;38103;42.776;23.112;2023-04-01T03:09:23;93041.03;;;10.12;67.17
52105;BME280;38103;42.776;23.112;2023-04-01T03:11:48;93043.56;;;9.96;70.02
52105;BME280;38103;42.776;23.112;2023-04-01T03:14:13;93045.38;;;9.90;71.15
52105;BME280;38103;42.776;23.112;2023-04-01T03:16:39;93050.56;;;9.80;74.62
52105;BME280;38103;42.776;23.112;2023-04-01T03:19:04;93039.03;;;9.53;77.67
52105;BME280;38103;42.776;23.112;2023-04-01T03:21:30;93025.16;;;9.41;78.53
52105;BME280;38103;42.776;23.112;2023-04-01T03:23:55;93013.22;;;9.27;79.25
52105;BME280;38103;42.776;23.112;2023-04-01T03:26:21;93004.03;;;9.08;80.51
52105;BME280;38103;42.776;23.112;2023-04-01T03:28:47;92991.38;;;9.10;82.11
52105;BME280;38103;42.776;23.112;2023-04-01T03:31:12;92937.97;;;8.92;81.47
52105;BME280;38103;42.776;23.112;2023-04-01T03:33:38;92968.56;;;9.21;82.51
52105;BME280;38103;42.776;23.112;2023-04-01T03:36:03;92961.50;;;9.26;81.44
52105;BME280;38103;42.776;23.112;2023-04-01T03:38:32;92965.41;;;9.24;79.58
52105;BME280;38103;42.776;23.112;2023-04-01T03:40:58;92954.91;;;9.29;79.72
52105;BME280;38103;42.776;23.112;2023-04-01T03:43:23;92905.44;;;9.09;80.14
52105;BME280;38103;42.776;23.112;2023-04-01T03:45:50;92932.13;;;9.50;80.63
52105;BME280;38103;42.776;23.112;2023-04-01T03:48:16;92941.50;;;9.36;82.34
52105;BME280;38103;42.776;23.112;2023-04-01T03:50:42;92927.56;;;9.41;81.46
52105;BME280;38103;42.776;23.112;2023-04-01T03:53:08;92920.13;;;9.32;81.61
52105;BME280;38103;42.776;23.112;2023-04-01T03:55:35;92917.38;;;9.16;82.38
52105;BME280;38103;42.776;23.112;2023-04-01T03:58:01;92908.03;;;9.03;84.47
52105;BME280;38103;42.776;23.112;2023-04-01T04:00:28;92909.72;;;8.87;85.58
52105;BME280;38103;42.776;23.112;2023-04-01T04:02:54;92908.81;;;8.76;86.88
52105;BME280;38103;42.776;23.112;2023-04-01T04:05:25;92908.28;;;8.74;85.75
52105;BME280;38103;42.776;23.112;2023-04-01T04:07:50;92888.63;;;8.87;90.15
52105;BME280;38103;42.776;23.112;2023-04-01T04:10:16;92899.16;;;9.15;91.30
52105;BME280;38103;42.776;23.112;2023-04-01T04:12:41;92897.84;;;9.18;90.51
52105;BME280;38103;42.776;23.112;2023-04-01T04:15:07;92899.94;;;9.15;89.50
52105;BME280;38103;42.776;23.112;2023-04-01T04:17:33;92898.16;;;9.21;90.15
52105;BME280;38103;42.776;23.112;2023-04-01T04:19:58;92898.88;;;9.11;97.04
52105;BME280;38103;42.776;23.112;2023-04-01T04:22:24;92891.13;;;8.99;98.94
52105;BME280;38103;42.776;23.112;2023-04-01T04:24:49;92884.25;;;8.98;99.11
52105;BME280;38103;42.776;23.112;2023-04-01T04:27:15;92886.81;;;8.88;99.03
52105;BME280;38103;42.776;23.112;2023-04-01T04:29:40;92876.63;;;8.69;100.00
52105;BME280;38103;42.776;23.112;2023-04-01T04:32:06;92872.03;;;8.59;100.00
52105;BME280;38103;42.776;23.112;2023-04-01T04:34:32;92870.53;;;8.41;100.00
52105;BME280;38103;42.776;23.112;2023-04-01T04:36:57;92866.06;;;8.41;100.00
52105;BME280;38103;42.776;23.112;2023-04-01T04:39:22;92869.81;;;8.23;100.00
52105;BME280;38103;42.776;23.112;2023-04-01T04:41:48;92860.28;;;8.16;100.00
52105;BME280;38103;42.776;23.112;2023-04-01T04:44:14;92856.09;;;8.21;100.00
52105;BME280;38103;42.776;23.112;2023-04-01T04:46:39;92814.13;;;8.09;100.00
52105;BME280;38103;42.776;23.112;2023-04-01T04:49:05;92865.84;;;8.48;100.00
52105;BME280;38103;42.776;23.112;2023-04-01T04:51:30;92856.41;;;8.52;100.00
52105;BME280;38103;42.776;23.112;2023-04-01T04:53:59;92852.72;;;8.53;100.00
52105;BME280;38103;42.776;23.112;2023-04-01T04:56:25;92844.69;;;8.37;100.00
52105;BME280;38103;42.776;23.112;2023-04-01T04:58:51;92833.53;;;8.30;98.35
52105;BME280;38103;42.776;23.112;2023-04-01T05:01:17;92817.84;;;8.41;95.71
52105;BME280;38103;42.776;23.112;2023-04-01T05:03:43;92811.53;;;8.42;93.22
52105;BME280;38103;42.776;23.112;2023-04-01T05:06:12;92809.63;;;8.32;90.44
52105;BME280;38103;42.776;23.112;2023-04-01T05:08:38;92814.66;;;8.38;88.33
52105;BME280;38103;42.776;23.112;2023-04-01T05:11:06;92804.81;;;8.56;88.85
52105;BME280;38103;42.776;23.112;2023-04-01T05:13:35;92809.72;;;8.70;91.93
52105;BME280;38103;42.776;23.112;2023-04-01T05:16:00;92803.97;;;8.78;95.54
52105;BME280;38103;42.776;23.112;2023-04-01T05:18:25;92800.31;;;8.85;95.78
52105;BME280;38103;42.776;23.112;2023-04-01T05:20:53;92804.59;;;8.91;96.46
52105;BME280;38103;42.776;23.112;2023-04-01T05:23:20;92808.66;;;9.04;97.21
52105;BME280;38103;42.776;23.112;2023-04-01T05:25:49;92810.97;;;9.44;99.09
52105;BME280;38103;42.776;23.112;2023-04-01T05:28:16;92804.03;;;9.81;92.86
52105;BME280;38103;42.776;23.112;2023-04-01T05:30:42;92792.03;;;10.32;87.21
52105;BME280;38103;42.776;23.112;2023-04-01T05:33:09;92802.69;;;10.84;81.93
52105;BME280;38103;42.776;23.112;2023-04-01T05:35:35;92800.75;;;11.43;78.45
52105;BME280;38103;42.776;23.112;2023-04-01T05:38:01;92797.09;;;12.05;74.45
52105;BME280;38103;42.776;23.112;2023-04-01T05:40:27;92773.91;;;12.37;73.02
52105;BME280;38103;42.776;23.112;2023-04-01T05:42:53;92749.69;;;12.84;72.80
52105;BME280;38103;42.776;23.112;2023-04-01T05:45:18;92782.19;;;13.30;66.94
52105;BME280;38103;42.776;23.112;2023-04-01T05:47:43;92779.66;;;13.14;64.83
52105;BME280;38103;42.776;23.112;2023-04-01T05:50:09;92738.88;;;12.80;65.62
52105;BME280;38103;42.776;23.112;2023-04-01T05:52:36;92783.69;;;13.12;65.50
52105;BME280;38103;42.776;23.112;2023-04-01T05:55:02;92784.22;;;13.38;58.99
52105;BME280;38103;42.776;23.112;2023-04-01T05:57:28;92776.56;;;13.37;61.61
52105;BME280;38103;42.776;23.112;2023-04-01T05:59:53;92783.16;;;13.39;62.20
52105;BME280;38103;42.776;23.112;2023-04-01T06:02:18;92777.78;;;13.20;63.80
52105;BME280;38103;42.776;23.112;2023-04-01T06:04:44;92774.88;;;12.87;67.72
52105;BME280;38103;42.776;23.112;2023-04-01T06:07:15;92780.56;;;13.04;68.88
52105;BME280;38103;42.776;23.112;2023-04-01T06:09:41;92778.44;;;13.06;68.79
52105;BME280;38103;42.776;23.112;2023-04-01T06:23:25;92774.38;;;11.88;73.63
52105;BME280;38103;42.776;23.112;2023-04-01T06:28:35;92785.09;;;11.62;73.06
52105;BME280;38103;42.776;23.112;2023-04-01T06:36:39;92771.97;;;11.25;72.29
52105;BME280;38103;42.776;23.112;2023-04-01T06:39:26;92769.34;;;11.15;73.22
52105;BME280;38103;42.776;23.112;2023-04-01T06:45:29;92771.50;;;10.76;76.03
52105;BME280;38103;42.776;23.112;2023-04-01T06:52:51;92769.88;;;10.91;78.09
52105;BME280;38103;42.776;23.112;2023-04-01T06:57:51;92761.91;;;11.27;74.79
52105;BME280;38103;42.776;23.112;2023-04-01T07:05:24;92723.28;;;11.21;75.90
52105;BME280;38103;42.776;23.112;2023-04-01T07:07:52;92759.78;;;11.29;76.98
52105;BME280;38103;42.776;23.112;2023-04-01T07:10:41;92770.88;;;11.32;77.86
52105;BME280;38103;42.776;23.112;2023-04-01T07:13:21;92775.13;;;11.27;75.25
52105;BME280;38103;42.776;23.112;2023-04-01T07:16:30;92775.69;;;10.77;76.44
52105;BME280;38103;42.776;23.112;2023-04-01T07:21:52;92771.69;;;11.27;77.87
52105;BME280;38103;42.776;23.112;2023-04-01T07:24:24;92772.69;;;11.42;77.72
52105;BME280;38103;42.776;23.112;2023-04-01T07:26:55;92758.75;;;11.15;79.34
52105;BME280;38103;42.776;23.112;2023-04-01T07:29:21;92761.94;;;10.96;79.93
52105;BME280;38103;42.776;23.112;2023-04-01T07:43:03;92769.88;;;10.91;78.28
52105;BME280;38103;42.776;23.112;2023-04-01T07:45:35;92773.34;;;10.76;78.51
52105;BME280;38103;42.776;23.112;2023-04-01T07:51:01;92753.75;;;10.50;77.17
52105;BME280;38103;42.776;23.112;2023-04-01T07:53:38;92751.13;;;10.71;77.15
52105;BME280;38103;42.776;23.112;2023-04-01T07:56:15;92724.44;;;10.68;78.08
52105;BME280;38103;42.776;23.112;2023-04-01T08:01:22;92734.94;;;11.20;78.21
52105;BME280;38103;42.776;23.112;2023-04-01T08:06:26;92721.66;;;11.36;77.98
52105;BME280;38103;42.776;23.112;2023-04-01T08:16:50;92713.19;;;11.39;79.86
52105;BME280;38103;42.776;23.112;2023-04-01T08:22:16;92698.81;;;11.61;79.59
52105;BME280;38103;42.776;23.112;2023-04-01T08:24:46;92692.41;;;11.72;78.17
52105;BME280;38103;42.776;23.112;2023-04-01T08:30:25;92679.72;;;12.10;71.98
52105;BME280;38103;42.776;23.112;2023-04-01T08:32:59;92676.56;;;12.07;73.73
52105;BME280;38103;42.776;23.112;2023-04-01T08:35:37;92675.56;;;12.38;75.19
52105;BME280;38103;42.776;23.112;2023-04-01T08:38:13;92645.94;;;12.31;69.75
52105;BME280;38103;42.776;23.112;2023-04-01T08:52:23;92659.31;;;12.80;71.64
52105;BME280;38103;42.776;23.112;2023-04-01T08:57:50;92641.06;;;13.23;69.01
52105;BME280;38103;42.776;23.112;2023-04-01T09:34:25;92585.47;;;12.38;69.81
52105;BME280;38103;42.776;23.112;2023-04-01T09:37:21;92582.09;;;12.57;70.33
52105;BME280;38103;42.776;23.112;2023-04-01T09:42:41;92570.50;;;13.22;64.91
52105;BME280;38103;42.776;23.112;2023-04-01T09:54:07;92557.81;;;13.77;56.49
52105;BME280;38103;42.776;23.112;2023-04-01T10:02:15;92538.06;;;13.83;58.11
52105;BME280;38103;42.776;23.112;2023-04-01T10:07:45;92526.34;;;14.17;55.58
52105;BME280;38103;42.776;23.112;2023-04-01T10:15:50;92512.31;;;14.45;45.66
52105;BME280;38103;42.776;23.112;2023-04-01T10:21:17;92510.44;;;14.74;44.97
52105;BME280;38103;42.776;23.112;2023-04-01T10:48:21;92472.69;;;14.72;45.60
52105;BME280;38103;42.776;23.112;2023-04-01T10:53:40;92487.47;;;14.78;48.43
52105;BME280;38103;42.776;23.112;2023-04-01T10:56:18;92486.38;;;14.79;48.98
52105;BME280;38103;42.776;23.112;2023-04-01T11:24:46;92588.00;;;14.19;62.98
52105;BME280;38103;42.776;23.112;2023-04-01T11:32:26;92634.53;;;12.60;76.90
52105;BME280;38103;42.776;23.112;2023-04-01T11:37:45;92660.31;;;12.25;81.55
52105;BME280;38103;42.776;23.112;2023-04-01T11:40:35;92665.84;;;11.83;85.51
52105;BME280;38103;42.776;23.112;2023-04-01T11:43:20;92674.97;;;11.61;88.72
52105;BME280;38103;42.776;23.112;2023-04-01T11:45:53;92679.31;;;11.36;90.95
52105;BME280;38103;42.776;23.112;2023-04-01T11:53:44;92670.25;;;10.60;100.00
52105;BME280;38103;42.776;23.112;2023-04-01T11:59:13;92671.31;;;10.22;100.00
52105;BME280;38103;42.776;23.112;2023-04-01T12:13:13;92678.44;;;10.06;100.00
52105;BME280;38103;42.776;23.112;2023-04-01T12:21:59;92694.81;;;10.24;100.00
52105;BME280;38103;42.776;23.112;2023-04-01T12:38:39;92656.78;;;10.46;100.00
52105;BME280;38103;42.776;23.112;2023-04-01T12:43:57;92649.38;;;10.58;100.00
52105;BME280;38103;42.776;23.112;2023-04-01T13:11:34;92611.75;;;11.54;100.00
52105;BME280;38103;42.776;23.112;2023-04-01T13:14:26;92628.81;;;11.27;100.00
52105;BME280;38103;42.776;23.112;2023-04-01T13:25:19;92606.16;;;11.61;93.73
52105;BME280;38103;42.776;23.112;2023-04-01T13:27:52;92592.41;;;11.59;92.62
52105;BME280;38103;42.776;23.112;2023-04-01T13:32:53;92540.00;;;11.91;96.32
52105;BME280;38103;42.776;23.112;2023-04-01T13:40:39;92531.41;;;11.75;83.23
52105;BME280;38103;42.776;23.112;2023-04-01T13:43:23;92546.31;;;12.00;83.95
52105;BME280;38103;42.776;23.112;2023-04-01T13:54:36;92530.59;;;12.63;78.86
52105;BME280;38103;42.776;23.112;2023-04-01T14:11:10;92527.50;;;12.32;79.20
52105;BME280;38103;42.776;23.112;2023-04-01T14:13:53;92517.13;;;12.60;82.28
52105;BME280;38103;42.776;23.112;2023-04-01T14:19:11;92509.63;;;12.87;81.40
52105;BME280;38103;42.776;23.112;2023-04-01T14:21:50;92504.47;;;12.76;80.62
52105;BME280;38103;42.776;23.112;2023-04-01T14:27:09;92468.31;;;13.24;78.10
52105;BME280;38103;42.776;23.112;2023-04-01T14:49:32;92487.53;;;14.02;61.01
52105;BME280;38103;42.776;23.112;2023-04-01T14:52:09;92453.66;;;13.80;60.67
52105;BME280;38103;42.776;23.112;2023-04-01T14:54:37;92501.03;;;14.06;60.85
52105;BME280;38103;42.776;23.112;2023-04-01T14:57:27;92459.47;;;13.82;60.87
52105;BME280;38103;42.776;23.112;2023-04-01T15:00:00;92499.84;;;13.98;61.91
52105;BME280;38103;42.776;23.112;2023-04-01T15:05:10;92504.91;;;13.80;59.51
52105;BME280;38103;42.776;23.112;2023-04-01T15:16:16;92495.91;;;13.62;60.94
52105;BME280;38103;42.776;23.112;2023-04-01T15:19:02;92484.69;;;13.65;63.08
52105;BME280;38103;42.776;23.112;2023-04-01T15:21:55;92501.63;;;13.69;63.18
52105;BME280;38103;42.776;23.112;2023-04-01T15:24:26;92512.75;;;13.71;63.66
52105;BME280;38103;42.776;23.112;2023-04-01T15:30:06;92620.88;;;13.02;65.32
52105;BME280;38103;42.776;23.112;2023-04-01T15:32:46;92642.69;;;11.59;70.31
52105;BME280;38103;42.776;23.112;2023-04-01T16:10:43;92783.41;;;7.24;100.00
52105;BME280;38103;42.776;23.112;2023-04-01T16:21:38;92779.56;;;6.92;100.00
52105;BME280;38103;42.776;23.112;2023-04-01T16:26:56;92775.50;;;6.85;100.00
52105;BME280;38103;42.776;23.112;2023-04-01T16:32:28;92797.81;;;6.82;100.00
52105;BME280;38103;42.776;23.112;2023-04-01T16:35:04;92795.97;;;6.82;100.00
52105;BME280;38103;42.776;23.112;2023-04-01T16:37:59;92787.84;;;6.84;100.00
52105;BME280;38103;42.776;23.112;2023-04-01T16:40:42;92795.72;;;6.84;100.00
52105;BME280;38103;42.776;23.112;2023-04-01T16:43:16;92809.03;;;6.77;100.00
52105;BME280;38103;42.776;23.112;2023-04-01T16:48:28;92772.50;;;6.41;100.00
52105;BME280;38103;42.776;23.112;2023-04-01T16:53:49;92821.19;;;6.49;100.00
52105;BME280;38103;42.776;23.112;2023-04-01T17:01:49;92854.72;;;6.30;100.00
52105;BME280;38103;42.776;23.112;2023-04-01T17:07:31;92870.72;;;6.16;100.00
52105;BME280;38103;42.776;23.112;2023-04-01T17:10:25;92841.84;;;5.87;100.00
52105;BME280;38103;42.776;23.112;2023-04-01T17:15:51;92894.69;;;6.20;100.00
52105;BME280;38103;42.776;23.112;2023-04-01T17:18:32;92896.63;;;6.24;100.00
52105;BME280;38103;42.776;23.112;2023-04-01T17:21:15;92869.28;;;6.08;100.00
52105;BME280;38103;42.776;23.112;2023-04-01T17:23:52;92881.75;;;6.30;100.00
52105;BME280;38103;42.776;23.112;2023-04-01T17:32:07;92886.09;;;6.36;100.00
52105;BME280;38103;42.776;23.112;2023-04-01T17:51:05;92935.88;;;6.19;100.00
52105;BME280;38103;42.776;23.112;2023-04-01T17:53:40;92944.56;;;6.20;100.00
52105;BME280;38103;42.776;23.112;2023-04-01T17:56:14;92945.69;;;6.24;100.00
52105;BME280;38103;42.776;23.112;2023-04-01T17:58:44;92955.25;;;6.30;100.00
52105;BME280;38103;42.776;23.112;2023-04-01T18:01:34;92964.69;;;6.43;100.00
52105;BME280;38103;42.776;23.112;2023-04-01T18:11:50;92957.22;;;6.64;100.00
52105;BME280;38103;42.776;23.112;2023-04-01T18:17:52;92967.31;;;6.73;100.00
52105;BME280;38103;42.776;23.112;2023-04-01T18:20:33;92974.53;;;6.77;100.00
52105;BME280;38103;42.776;23.112;2023-04-01T18:23:18;92976.91;;;6.79;100.00
52105;BME280;38103;42.776;23.112;2023-04-01T18:25:50;92982.50;;;6.82;100.00
52105;BME280;38103;42.776;23.112;2023-04-01T18:38:50;92980.44;;;6.85;100.00
52105;BME280;38103;42.776;23.112;2023-04-01T18:41:29;92989.34;;;6.84;100.00
52105;BME280;38103;42.776;23.112;2023-04-01T18:44:34;92995.72;;;6.88;100.00
52105;BME280;38103;42.776;23.112;2023-04-01T18:48:06;92997.31;;;6.89;100.00
52105;BME280;38103;42.776;23.112;2023-04-01T18:50:30;92998.91;;;6.90;100.00
52105;BME280;38103;42.776;23.112;2023-04-01T18:55:50;93003.47;;;6.95;100.00
52105;BME280;38103;42.776;23.112;2023-04-01T19:06:58;93013.84;;;6.72;100.00
52105;BME280;38103;42.776;23.112;2023-04-01T19:09:51;93010.66;;;6.70;100.00
52105;BME280;38103;42.776;23.112;2023-04-01T19:12:44;93008.38;;;6.62;100.00
52105;BME280;38103;42.776;23.112;2023-04-01T19:15:34;93016.38;;;6.55;100.00
52105;BME280;38103;42.776;23.112;2023-04-01T19:20:53;93015.72;;;6.47;100.00
52105;BME280;38103;42.776;23.112;2023-04-01T19:31:50;93008.88;;;6.34;100.00
52105;BME280;38103;42.776;23.112;2023-04-01T19:37:01;93006.25;;;6.34;100.00
52105;BME280;38103;42.776;23.112;2023-04-01T19:39:39;93006.38;;;6.40;100.00
52105;BME280;38103;42.776;23.112;2023-04-01T19:42:28;93003.75;;;6.40;100.00
52105;BME280;38103;42.776;23.112;2023-04-01T19:48:04;93010.50;;;6.35;100.00
52105;BME280;38103;42.776;23.112;2023-04-01T19:50:40;93000.91;;;6.29;100.00
52105;BME280;38103;42.776;23.112;2023-04-01T19:53:21;92999.31;;;6.28;100.00
52105;BME280;38103;42.776;23.112;2023-04-01T19:56:05;93001.94;;;6.16;100.00
52105;BME280;38103;42.776;23.112;2023-04-01T19:58:41;93008.94;;;6.10;100.00
52105;BME280;38103;42.776;23.112;2023-04-01T20:01:14;93017.38;;;6.12;100.00
52105;BME280;38103;42.776;23.112;2023-04-01T20:06:38;93026.81;;;6.13;100.00
52105;BME280;38103;42.776;23.112;2023-04-01T20:14:49;93034.13;;;6.11;100.00
52105;BME280;38103;42.776;23.112;2023-04-01T20:18:01;93039.59;;;6.22;100.00
52105;BME280;38103;42.776;23.112;2023-04-01T20:22:55;93039.25;;;6.30;100.00
52105;BME280;38103;42.776;23.112;2023-04-01T20:25:46;93009.72;;;6.11;100.00
52105;BME280;38103;42.776;23.112;2023-04-01T20:28:22;92994.53;;;6.01;100.00
52105;BME280;38103;42.776;23.112;2023-04-01T20:34:03;93045.31;;;6.19;100.00
52105;BME280;38103;42.776;23.112;2023-04-01T20:36:51;93041.44;;;5.97;100.00
52105;BME280;38103;42.776;23.112;2023-04-01T20:53:13;93067.50;;;5.56;100.00
52105;BME280;38103;42.776;23.112;2023-04-01T21:09:19;93096.22;;;5.51;100.00
52105;BME280;38103;42.776;23.112;2023-04-01T21:28:41;93098.91;;;5.87;100.00
52105;BME280;38103;42.776;23.112;2023-04-01T21:34:11;93089.66;;;5.84;100.00
52105;BME280;38103;42.776;23.112;2023-04-01T21:44:57;93079.50;;;5.76;100.00
52105;BME280;38103;42.776;23.112;2023-04-01T22:07:02;93070.72;;;4.96;100.00
52105;BME280;38103;42.776;23.112;2023-04-01T22:09:35;93072.59;;;5.08;100.00
52105;BME280;38103;42.776;23.112;2023-04-01T22:12:09;93077.38;;;5.11;100.00
52105;BME280;38103;42.776;23.112;2023-04-01T22:15:11;93078.59;;;4.96;100.00
52105;BME280;38103;42.776;23.112;2023-04-01T22:26:13;93095.03;;;4.85;100.00
52105;BME280;38103;42.776;23.112;2023-04-01T22:29:05;93090.16;;;4.88;100.00
52105;BME280;38103;42.776;23.112;2023-04-01T22:34:39;93094.16;;;4.91;100.00
52105;BME280;38103;42.776;23.112;2023-04-01T22:37:30;93094.59;;;4.88;100.00
52105;BME280;38103;42.776;23.112;2023-04-01T22:40:21;93080.22;;;4.78;100.00
52105;BME280;38103;42.776;23.112;2023-04-01T22:43:00;93082.25;;;4.76;100.00
52105;BME280;38103;42.776;23.112;2023-04-01T22:55:51;93051.63;;;4.01;100.00
52105;BME280;38103;42.776;23.112;2023-04-01T22:58:26;93092.88;;;4.25;100.00
52105;BME280;38103;42.776;23.112;2023-04-01T23:00:59;93106.09;;;4.30;100.00
52105;BME280;38103;42.776;23.112;2023-04-01T23:03:30;93109.06;;;4.34;100.00
52105;BME280;38103;42.776;23.112;2023-04-01T23:06:02;93109.22;;;4.39;100.00
52105;BME280;38103;42.776;23.112;2023-04-01T23:16:39;93115.56;;;4.50;100.00
52105;BME280;38103;42.776;23.112;2023-04-01T23:19:35;93093.44;;;4.27;100.00
52105;BME280;38103;42.776;23.112;2023-04-01T23:22:29;93104.88;;;4.33;100.00
52105;BME280;38103;42.776;23.112;2023-04-01T23:27:37;93102.66;;;4.11;100.00
52105;BME280;38103;42.776;23.112;2023-04-01T23:38:32;93108.13;;;4.28;100.00
52105;BME280;38103;42.776;23.112;2023-04-01T23:40:58;93106.53;;;4.27;100.00
52105;BME280;38103;42.776;23.112;2023-04-01T23:43:29;93102.00;;;4.16;100.00
52105;BME280;38103;42.776;23.112;2023-04-01T23:45:57;93065.47;;;3.83;100.00
52105;BME280;38103;42.776;23.112;2023-04-01T23:48:46;93105.50;;;4.09;100.00
52105;BME280;38103;42.776;23.112;2023-04-01T23:51:24;93102.91;;;4.02;100.00
52105;BME280;38103;42.776;23.112;2023-04-01T23:54:00;93099.19;;;3.91;100.00
52105;BME280;38103;42.776;23.112;2023-04-01T23:56:38;93090.00;;;3.82;100.00
52105;BME280;38103;42.776;23.112;2023-04-01T23:59:14;93085.97;;;3.86;100.00
